Bow Island Climate, Alberta

Past 24 Hour Conditions

This table is a summary of hourly weather conditions for the past 24 hours. This summary includes the following parameters: temperature, humidity, dew point, wind speed and direction, air pressure, visibility and/or wind chill and humidex.
Date / Time
(MDT)
Conditions Temp (°F) Humidity (%) Dew Point (°F) Wind (mph) Pressure (inches) Visibility (miles)
25 July 2014
16:00 N/A 62 64 50 N 7 N/A N/A
15:00 N/A 66 54 49 N 6 N/A N/A
14:00 N/A 69 42 46 W 19 gust 27 N/A N/A
13:00 N/A 74   39 48 W 21 gust 28 N/A N/A
12:00 N/A 68 47 47 W 16 gust 27 N/A N/A
11:00 N/A 68 43 44 W 24 gust 31 N/A N/A
10:00 N/A 66 47 45 W 24 gust 32 N/A N/A
9:00 N/A 64 49 44 W 24 gust 33 N/A N/A
8:00 N/A 61 53 43 W 23 gust 31 N/A N/A
7:00 N/A 57 60 43 W 18 gust 26 N/A N/A
6:00 N/A 52   70 43 SW 7 N/A N/A
5:00 N/A 52   70 43 WSW 7 N/A N/A
4:00 N/A 56 60 42 W 15 gust 21 N/A N/A
3:00 N/A 55 64 42 W 18 gust 23 N/A N/A
2:00 N/A 52   68 42 WSW 7 N/A N/A
1:00 N/A 53 66 42 WSW 8 N/A N/A
00:00 N/A 53 63 41 SW 8 N/A N/A
24 July 2014
23:00 N/A 55 59 41 SW 6 N/A N/A
22:00 N/A 56 56 41 WSW 7 N/A N/A
21:00 N/A 60 49 41 WSW 9 N/A N/A
20:00 N/A 64 42 41 W 19 gust 27 N/A N/A
19:00 N/A 66 37 39 W 26 gust 32 N/A N/A
18:00 N/A 69 31 37 WSW 21 N/A N/A
17:00 N/A 70 32 39 WSW 14 N/A N/A
16:00 N/A 71 29 37 WSW 15 N/A N/A
N/A
Not available
 ↑ 
Highest temperature
 ↓ 
Lowest temperature

If you require additional historical weather information, please visit Climate Data Online.